»·PEaware :: ASA453 KPDX-CYVR

ASA453 :: KPDX-CYVR

FLIGHT INFORMATION

Flight Status: Arrived
Operator:
Alaska Airlines
More flights by this operator :: More flights under this callsign
Pilot: Jerome G. (4242)
Aircraft: AIRBUS A320
(A320)
More flights by this aircraft type
Origin: KPDX Portland Intl
United States
Destination: CYVR Vancouver Intl
Canada
More flights between these airports :: More routes between these airports
Route: +BTG J1 SEA PAE GRIZZ5
File this flight plan on PilotEdge
Remarks: RMK / POWERED BY SIMBRIEF
Altitude:
(Current/Filed)
34,000ft
Speed:
(Current/Filed)
458kts
Departed: 31-Jan-18 10:29 PM
Arrived: 31-Jan-18 11:21 PM
Distance/Time
Traveled:
218nm/0:52
Distance/Time
To Go:
Arrived

Flight Plot

Page will automatically refresh every two minutes.

Flight plan parsing failed; only flown route is shown


Map Options




Map Legend


Flown Route
Filed Route
Departure Airport
Arrival Airport
Navaid (VOR, NDB)
Fix

Horizontal Profiles

Position Reports

Time Latitude Longitude Heading Altitude Ground
Speed
31-Jan-18 22:07 45.589295 -122.597982 30 32ft 0kts
31-Jan-18 22:08 45.589295 -122.597982 30 32ft 0kts
31-Jan-18 22:09 45.589295 -122.597982 30 32ft 0kts
31-Jan-18 22:10 45.589295 -122.597982 30 32ft 0kts
31-Jan-18 22:11 45.589295 -122.597982 30 32ft 0kts
31-Jan-18 22:12 45.589295 -122.597982 30 32ft 0kts
31-Jan-18 22:13 45.589295 -122.597982 30 32ft 0kts
31-Jan-18 22:14 45.589295 -122.597982 30 32ft 0kts
31-Jan-18 22:15 45.589295 -122.597982 30 32ft 0kts
31-Jan-18 22:16 45.589295 -122.597982 30 32ft 0kts
31-Jan-18 22:17 45.589295 -122.597982 30 32ft 0kts
31-Jan-18 22:18 45.589295 -122.597982 30 32ft 0kts
31-Jan-18 22:19 45.589295 -122.597982 30 32ft 0kts
31-Jan-18 22:20 45.589295 -122.597982 30 32ft 0kts
31-Jan-18 22:21 45.589295 -122.597982 30 32ft 0kts
31-Jan-18 22:22 45.589295 -122.597982 30 32ft 0kts
31-Jan-18 22:23 45.589009 -122.598204 23 32ft 2kts
31-Jan-18 22:24 45.588394 -122.598416 344 32ft 2kts
31-Jan-18 22:25 45.588184 -122.598134 298 32ft 0kts
31-Jan-18 22:26 45.588184 -122.598135 298 32ft 0kts
31-Jan-18 22:27 45.588184 -122.598135 298 32ft 0kts
31-Jan-18 22:28 45.588184 -122.598135 298 32ft 0kts
31-Jan-18 22:29 45.588665 -122.599365 298 32ft 8kts
31-Jan-18 22:30 45.590010 -122.603722 233 32ft 13kts
31-Jan-18 22:31 45.592110 -122.608754 299 32ft 22kts
31-Jan-18 22:32 45.595301 -122.616943 299 32ft 24kts
31-Jan-18 22:33 45.595919 -122.620593 199 32ft 0kts
31-Jan-18 22:34 45.595018 -122.621082 145 32ft 6kts
31-Jan-18 22:35 45.586952 -122.600226 118 81ft 167kts
31-Jan-18 22:36 45.562978 -122.538522 119 2468ft 203kts
31-Jan-18 22:37 45.586169 -122.472294 353 4374ft 266kts
31-Jan-18 22:38 45.647029 -122.527514 330 7742ft 268kts
31-Jan-18 22:39 45.716731 -122.571210 331 10736ft 282kts
31-Jan-18 22:40 45.803077 -122.584052 1 12395ft 347kts
31-Jan-18 22:41 45.899885 -122.566745 357 14878ft 356kts
31-Jan-18 22:42 46.000121 -122.550620 356 17069ft 367kts
31-Jan-18 22:43 46.102404 -122.533812 355 19137ft 374kts
31-Jan-18 22:44 46.208298 -122.516556 355 20411ft 398kts
31-Jan-18 22:45 46.319801 -122.497918 355 22042ft 406kts
31-Jan-18 22:46 46.433138 -122.479221 355 23466ft 415kts
31-Jan-18 22:47 46.548447 -122.459917 355 24326ft 409kts
31-Jan-18 22:48 46.661263 -122.441162 354 24309ft 407kts
31-Jan-18 22:49 46.773478 -122.422315 354 24301ft 406kts
31-Jan-18 22:50 46.885776 -122.403367 354 24297ft 403kts
31-Jan-18 22:51 46.997041 -122.384586 354 24298ft 402kts
31-Jan-18 22:52 47.101356 -122.366763 354 24297ft 399kts
31-Jan-18 22:53 47.207793 -122.348693 353 24296ft 398kts
31-Jan-18 22:54 47.306998 -122.331655 353 24294ft 395kts
31-Jan-18 22:55 47.416115 -122.312927 352 24286ft 394kts
31-Jan-18 22:56 47.523681 -122.303815 349 24290ft 383kts
31-Jan-18 22:57 47.619506 -122.297583 349 24300ft 383kts
31-Jan-18 22:58 47.725720 -122.290607 348 24294ft 382kts
31-Jan-18 22:59 47.831819 -122.283594 348 24277ft 379kts
31-Jan-18 23:00 47.936333 -122.281983 338 24265ft 363kts
31-Jan-18 23:01 48.034207 -122.310997 337 24267ft 357kts
31-Jan-18 23:02 48.128627 -122.337750 336 23371ft 326kts
31-Jan-18 23:03 48.213974 -122.362863 336 21597ft 303kts
31-Jan-18 23:04 48.294711 -122.386487 336 20020ft 292kts
31-Jan-18 23:05 48.376418 -122.410471 337 18382ft 300kts
31-Jan-18 23:06 48.456387 -122.433883 338 16735ft 288kts
31-Jan-18 23:07 48.538161 -122.458101 340 15258ft 307kts
31-Jan-18 23:08 48.623755 -122.483362 342 13575ft 318kts
31-Jan-18 23:09 48.710131 -122.513693 326 11943ft 312kts
31-Jan-18 23:10 48.768402 -122.607705 306 10949ft 307kts
31-Jan-18 23:11 48.824629 -122.705422 307 10156ft 308kts
31-Jan-18 23:12 48.880917 -122.803780 307 9997ft 309kts
31-Jan-18 23:13 48.937473 -122.902771 307 9999ft 309kts
31-Jan-18 23:14 48.993734 -123.001672 307 9999ft 309kts
31-Jan-18 23:15 49.044965 -123.092011 307 9889ft 276kts
31-Jan-18 23:16 49.085315 -123.189400 281 8032ft 270kts
31-Jan-18 23:17 49.103461 -123.297606 283 6748ft 245kts
31-Jan-18 23:18 49.119413 -123.389213 281 5804ft 215kts
31-Jan-18 23:19 49.135009 -123.479102 283 3987ft 223kts
31-Jan-18 23:20 49.164215 -123.549311 352 3033ft 199kts
31-Jan-18 23:21 49.219287 -123.542635 31 2953ft 200kts
31-Jan-18 23:22 49.235552 -123.467429 100 3005ft 180kts
31-Jan-18 23:23 49.227882 -123.400843 100 2596ft 149kts
31-Jan-18 23:24 49.221171 -123.341647 99 1849ft 135kts
31-Jan-18 23:25 49.214716 -123.285578 98 1131ft 132kts
31-Jan-18 23:26 49.208428 -123.230630 98 427ft 130kts
31-Jan-18 23:27 49.203390 -123.185534 113 28ft 27kts
31-Jan-18 23:28 49.201774 -123.182595 128 28ft 5kts
31-Jan-18 23:29 49.201213 -123.181526 128 28ft 1kts
31-Jan-18 23:30 49.200417 -123.178552 129 28ft 10kts
31-Jan-18 23:31 49.199304 -123.180248 188 28ft 4kts
31-Jan-18 23:32 49.199182 -123.180274 187 28ft 0kts
31-Jan-18 23:33 49.199182 -123.180274 187 28ft 0kts

Navigation Log

Ident Type
Flight plan parsing failed, navigation log unavailable